• Join FlightAware (Why Join?)
  • Login
  • US Flag 
10:33AM EST


 

Airport Tracker/Info


-or-


 

Live Flight TrackerFlight Track Log ✈ FDX1547 ✈ 07-Mar-2012 ✈ KMEM - KIAH

Flight Track Log - Related Links

Times and Time Zones

All times are in EST time to prevent confusion due to time zone crossing. See the FDX1547 flight status page for this flight to view local times or setup timezone preferences in your user account.

Time Position Orientation Groundspeed Altitude Reporting Facility
EST Latitude Longitude Course Direction KTS MPH feet Rate Location/Type
05:21AM 35.0333 -89.9833 180° South 122 140 1,300  Level Anchorage Center
05:22AM 35.0000 -89.9833 180° South 133 153 2,900 2,938 Climbing Anchorage Center
05:23AM 34.9500 -89.9833 192° South 218 251 6,000 3,579 Climbing Anchorage Center
05:24AM 34.8833 -90.0000 188° South 244 281 9,700 3,103 Climbing Anchorage Center
05:26AM 34.7044 -90.0311 188° South 341 392 15,000 2,931 Climbing Memphis Center
05:27AM 34.5939 -90.0494 186° South 385 443 18,200 3,150 Climbing Memphis Center
05:28AM 34.4792 -90.0647 188° South 413 475 21,300 2,400 Climbing Memphis Center
05:29AM 34.3728 -90.0828 187° South 424 488 23,000 850 Climbing Memphis Center
05:30AM 34.2475 -90.1008 196° South 446 513 23,000 850 Level Memphis Center
05:31AM 34.1328 -90.1414 224° Southwest 441 507 24,700 2,050 Climbing Memphis Center
05:32AM 34.0453 -90.2444 226° Southwest 421 484 27,100 2,800 Climbing Memphis Center
05:33AM 33.9619 -90.3497 224° Southwest 431 496 30,300 2,800 Climbing Memphis Center
05:34AM 33.8783 -90.4472 224° Southwest 426 490 32,700 2,200 Climbing Memphis Center
05:35AM 33.7989 -90.5397 226° Southwest 421 484 34,700 1,500 Climbing Memphis Center
05:36AM 33.7194 -90.6394 224° Southwest 408 470 35,700 650 Climbing Memphis Center
05:37AM 33.6378 -90.7339 225° Southwest 408 470 36,000 150 Climbing Memphis Center
05:38AM 33.5561 -90.8333 225° Southwest 408 470 36,000  Level Memphis Center
05:39AM 33.4764 -90.9300 225° Southwest 408 470 36,000  Level Memphis Center
05:40AM 33.3967 -91.0267 225° Southwest 408 470 36,000  Level Memphis Center
05:42AM 33.2397 -91.2122 223° Southwest 411 473 36,000  Level Fort Worth Center
05:43AM 33.1567 -91.3050 227° Southwest 411 473 36,000  Level Fort Worth Center
05:44AM 33.0800 -91.4019 224° Southwest 411 473 36,000  Level Fort Worth Center
05:45AM 32.9986 -91.4942 227° Southwest 411 473 36,000  Level Fort Worth Center
05:46AM 32.9219 -91.5906 223° Southwest 411 473 36,000  Level Fort Worth Center
05:47AM 32.8383 -91.6825 224° Southwest 411 473 36,000  Level Fort Worth Center
05:48AM 32.7572 -91.7767 224° Southwest 411 473 36,000  Level Fort Worth Center
05:50AM 32.5517 -92.0148 226° Southwest 416 479 36,000  Level FlightAware ADS-B
05:52AM 32.4589 -92.1281 224° Southwest 409 471 36,000  Level Houston Center
05:53AM 32.3772 -92.2211 224° Southwest 409 471 36,000  Level Houston Center
05:54AM 32.2933 -92.3164 223° Southwest 409 471 36,000  Level Houston Center
05:55AM 32.2114 -92.4064 222° Southwest 409 471 36,000  Level Houston Center
05:56AM 32.1275 -92.4964 227° Southwest 409 471 36,000  Level Houston Center
05:57AM 32.0497 -92.5961 223° Southwest 409 471 36,000  Level Houston Center
05:58AM 31.9656 -92.6883 219° Southwest 409 471 36,000  Level Houston Center
05:59AM 31.8775 -92.7731 220° Southwest 409 471 36,000 -50 Level Houston Center
06:00AM 31.7892 -92.8600 219° Southwest 414 476 35,900  Descending Houston Center
06:01AM 31.7008 -92.9442 219° Southwest 414 476 36,000 41 Climbing Houston Center
06:02AM 31.5708 -93.0674 219° Southwest 411 473 36,000  Level FlightAware ADS-B
06:03AM 31.5217 -93.1146 219° Southwest 409 471 36,000  Level FlightAware ADS-B
06:03AM 31.4745 -93.1599 219° Southwest 415 478 36,000  Level FlightAware ADS-B
06:04AM 31.4272 -93.2053 219° Southwest 417 480 36,000  Level FlightAware ADS-B
06:05AM 31.3406 -93.2880 219° Southwest 413 475 36,000  Level FlightAware ADS-B
06:05AM 31.2939 -93.3326 219° Southwest 423 487 36,000  Level FlightAware ADS-B
06:06AM 31.2486 -93.3757 219° Southwest 416 479 36,000  Level FlightAware ADS-B
06:06AM 31.2037 -93.4185 219° Southwest 428 493 36,000  Level FlightAware ADS-B
06:07AM 31.1588 -93.4612 219° Southwest 411 473 36,000  Level FlightAware ADS-B
06:07AM 31.1088 -93.5087 219° Southwest 415 478 36,000  Level FlightAware ADS-B
06:08AM 31.0635 -93.5518 219° Southwest 404 465 36,000  Level FlightAware ADS-B
06:08AM 31.0187 -93.5941 219° Southwest 407 468 36,000  Level FlightAware ADS-B
06:09AM 30.9734 -93.6370 219° Southwest 408 470 36,000  Level FlightAware ADS-B
06:09AM 30.9281 -93.6801 219° Southwest 421 484 36,000 -689 Level FlightAware ADS-B
06:10AM 30.8836 -93.7218 219° Southwest 403 464 35,300 -2,164 Descending FlightAware ADS-B
06:10AM 30.8390 -93.7638 219° Southwest 411 473 33,800 -3,100 Descending FlightAware ADS-B
06:11AM 30.7944 -93.8057 219° Southwest 420 483 32,200 -3,246 Descending FlightAware ADS-B
06:11AM 30.7505 -93.8471 219° Southwest 413 475 30,500 -3,344 Descending FlightAware ADS-B
06:12AM 30.7068 -93.8885 219° Southwest 404 465 28,800 -3,443 Descending FlightAware ADS-B
06:12AM 30.6599 -93.9326 219° Southwest 408 470 27,000 -3,048 Descending FlightAware ADS-B
06:13AM 30.6160 -93.9740 219° Southwest 334 384 25,600 -2,762 Descending FlightAware ADS-B
06:13AM 30.5683 -94.0189 219° Southwest 424 488 24,100 -2,852 Descending FlightAware ADS-B
06:14AM 30.5223 -94.0620 219° Southwest 423 487 22,700 -2,900 Descending FlightAware ADS-B
06:14AM 30.4766 -94.1047 219° Southwest 420 483 21,200 -2,900 Descending FlightAware ADS-B
06:15AM 30.4323 -94.1461 219° Southwest 407 468 19,800 -2,900 Descending FlightAware ADS-B
06:15AM 30.3887 -94.1868 219° Southwest 410 472 18,300 -2,951 Descending FlightAware ADS-B
06:16AM 30.3449 -94.2275 219° Southwest 407 468 16,800 -2,951 Descending FlightAware ADS-B
06:16AM 30.3013 -94.2680 219° Southwest 384 442 15,300 -2,900 Descending FlightAware ADS-B
06:17AM 30.2575 -94.3085 219° Southwest 404 465 13,900 -2,900 Descending FlightAware ADS-B
06:17AM 30.2158 -94.3477 237° Southwest 381 438 12,400 -1,967 Descending FlightAware ADS-B
06:18AM 30.1872 -94.3983 248° West 373 429 11,900 -492 Descending FlightAware ADS-B
06:18AM 30.1690 -94.4510 248° West 350 403 11,900 -300 Level FlightAware ADS-B
06:19AM 30.1523 -94.4991 248° West 314 361 11,600 -900 Descending FlightAware ADS-B
06:19AM 30.1369 -94.5437 248° West 298 343 11,000 -1,655 Descending FlightAware ADS-B
06:20AM 30.1235 -94.5822 248° West 277 319 10,000 -2,182 Descending FlightAware ADS-B
06:20AM 30.1165 -94.6022 249° West 259 298 9,400 -2,323 Descending FlightAware ADS-B
06:20AM 30.1098 -94.6222 250° West 271 312 8,800 -2,800 Descending FlightAware ADS-B
06:21AM 30.1029 -94.6436 251° West 271 312 8,000 -2,800 Descending FlightAware ADS-B
06:21AM 30.0967 -94.6639 251° West 264 304 7,400 -2,000 Descending FlightAware ADS-B
06:21AM 30.0907 -94.6836 249° West 254 292 7,000 -2,049 Descending FlightAware ADS-B
06:22AM 30.0799 -94.7157 247° West 246 283 6,000 -2,000 Descending FlightAware ADS-B
06:22AM 30.0728 -94.7348 246° West 240 276 5,600 -1,500 Descending FlightAware ADS-B
06:22AM 30.0653 -94.7542 245° Southwest 240 276 5,200 -1,688 Descending FlightAware ADS-B
06:22AM 30.0574 -94.7741 246° West 248 285 4,700 -1,688 Descending FlightAware ADS-B
06:23AM 30.0499 -94.7935 247° West 252 290 4,300 -1,135 Descending FlightAware ADS-B
06:23AM 30.0404 -94.8189 248° West 245 282 4,000 -667 Descending FlightAware ADS-B
06:23AM 30.0341 -94.8373 248° West 241 277 3,900 -194 Descending FlightAware ADS-B
06:23AM 30.0272 -94.8567 248° West 250 288 3,900  Level FlightAware ADS-B
06:24AM 30.0206 -94.8757 248° West 253 291 3,900  Level FlightAware ADS-B
06:24AM 30.0141 -94.8941 248° West 251 289 3,900  Level FlightAware ADS-B
06:24AM 30.0076 -94.9124 248° West 248 285 3,900  Level FlightAware ADS-B
06:24AM 30.0013 -94.9308 248° West 247 284 3,900  Level FlightAware ADS-B
06:25AM 29.9946 -94.9497 248° West 247 284 3,900  Level FlightAware ADS-B
06:25AM 29.9882 -94.9679 248° West 247 284 3,900  Level FlightAware ADS-B
06:25AM 29.9819 -94.9861 260° West 238 274 3,900  Level FlightAware ADS-B
06:25AM 29.9788 -95.0062 266° West 247 284 3,900  Level FlightAware ADS-B
06:26AM 29.9777 -95.0254 268° West 236 272 3,900  Level FlightAware ADS-B
06:26AM 29.9772 -95.0448 269° West 236 272 3,900  Level FlightAware ADS-B
06:26AM 29.9770 -95.0637 271° West 236 272 3,900 -400 Level FlightAware ADS-B
06:26AM 29.9772 -95.0829 271° West 237 273 3,700 -1,000 Descending FlightAware ADS-B
06:27AM 29.9776 -95.1014 271° West 231 266 3,400 -1,355 Descending FlightAware ADS-B
06:27AM 29.9778 -95.1203 270° West 231 266 3,000 -1,313 Descending FlightAware ADS-B
06:27AM 29.9778 -95.1389 269° West 219 252 2,700 -1,161 Descending FlightAware ADS-B
06:28AM 29.9776 -95.1572 269° West 221 254 2,400 -1,161 Descending FlightAware ADS-B
06:28AM 29.9774 -95.1747 271° West 210 242 2,100 -1,024 Descending FlightAware ADS-B
06:28AM 29.9776 -95.2008 270° West 190 219 1,700 -1,050 Descending FlightAware ADS-B
06:28AM 29.9776 -95.2156 269° West 175 201 1,400 -968 Descending FlightAware ADS-B
06:29AM 29.9774 -95.2295 270° West 170 196 1,200 -774 Descending FlightAware ADS-B
06:29AM 29.9774 -95.2422 270° West 157 181 1,000 -800 Descending FlightAware ADS-B
06:29AM 29.9774 -95.2539 270° West 146 168 800 -774 Descending FlightAware ADS-B
06:29AM 29.9774 -95.2655 270° West 141 162 600 -774 Descending FlightAware ADS-B
06:30AM 29.9774 -95.2769 270° West 142 163 400 -774 Descending FlightAware ADS-B
06:30AM 29.9774 -95.2887 270° West 137 158 200 -750 Descending FlightAware ADS-B
06:30AM 29.9774 -95.3002 270° West 134 154 -750 Descending FlightAware ADS-B